Time;durP1;ratioP1;P1;durP2;ratioP2;P2;SDS_P1;SDS_P2;PMS_P1;PMS_P2;Temp;Humidity;BMP_temperature;BMP_pressure;BME280_temperature;BME280_humidity;BME280_pressure;Samples;Min_cycle;Max_cycle;Signal;HPM_P1;HPM_P2
2024/01/15 00:01:59;;;;;;;;;;;13.40;99.90;;;;;;5073842;28;20392;-65
2024/01/15 00:04:25;;;;;;;;;;;13.40;99.90;;;;;;5073699;28;19967;-65
2024/01/15 00:06:50;;;;;;;;;;;13.50;99.90;;;;;;5073988;28;19992;-63
2024/01/15 00:09:16;;;;;;;;;;;13.50;99.90;;;;;;5074012;28;20369;-64
2024/01/15 00:11:42;;;;;;;;;;;13.50;99.90;;;;;;5074429;28;19930;-64
2024/01/15 00:14:09;;;;;;;;;;;13.50;99.90;;;;;;5073679;28;19908;-65
2024/01/15 00:16:35;;;;;;;;;;;13.50;99.90;;;;;;5073699;28;19995;-65
2024/01/15 00:19:00;;;;;;;;;;;13.60;99.90;;;;;;5073640;28;20011;-65
2024/01/15 00:21:27;;;;;;;;;;;13.60;99.90;;;;;;5074100;28;20354;-65
2024/01/15 00:23:53;;;;;;;;;;;13.60;99.90;;;;;;5073681;28;19909;-65
2024/01/15 00:26:19;;;;;;;;;;;13.60;99.90;;;;;;5055348;28;19924;-65
2024/01/15 00:28:45;;;;;;;;;;;13.60;99.90;;;;;;5073577;28;19981;-65
2024/01/15 00:31:11;;;;;;;;;;;13.60;99.90;;;;;;5073472;28;19954;-65
2024/01/15 00:33:36;;;;;;;;;;;13.60;99.90;;;;;;5073338;28;19916;-64
2024/01/15 00:36:03;;;;;;;;;;;13.60;99.90;;;;;;5073423;28;20303;-65
2024/01/15 00:38:28;;;;;;;;;;;13.60;99.90;;;;;;5073439;28;19978;-65
2024/01/15 00:40:54;;;;;;;;;;;13.60;99.90;;;;;;5055128;28;19908;-65
2024/01/15 00:43:21;;;;;;;;;;;13.60;99.90;;;;;;5072748;28;19968;-65
2024/01/15 00:45:46;;;;;;;;;;;13.60;99.90;;;;;;5072381;28;19920;-65
2024/01/15 00:48:13;;;;;;;;;;;13.60;99.90;;;;;;5072958;28;19961;-65
2024/01/15 00:50:39;;;;;;;;;;;13.60;99.90;;;;;;5073403;28;20284;-65
2024/01/15 00:53:05;;;;;;;;;;;13.60;99.90;;;;;;5073034;28;19916;-65
2024/01/15 00:55:31;;;;;;;;;;;13.50;99.90;;;;;;5072890;28;20314;-65
2024/01/15 00:57:57;;;;;;;;;;;13.50;99.90;;;;;;5073014;28;20260;-65
2024/01/15 01:00:23;;;;;;;;;;;13.50;99.90;;;;;;5072871;28;19909;-65
2024/01/15 01:02:49;;;;;;;;;;;13.50;99.90;;;;;;5072927;28;19916;-64
2024/01/15 01:05:15;;;;;;;;;;;13.50;99.90;;;;;;5072154;28;19921;-65
2024/01/15 01:07:40;;;;;;;;;;;13.60;99.90;;;;;;5072778;28;19951;-65
2024/01/15 01:10:06;;;;;;;;;;;13.60;99.90;;;;;;5072333;28;19909;-65
2024/01/15 01:12:32;;;;;;;;;;;13.60;99.90;;;;;;5072713;28;19962;-65
2024/01/15 01:14:58;;;;;;;;;;;13.50;99.90;;;;;;5072953;28;19909;-65
2024/01/15 01:17:25;;;;;;;;;;;13.50;99.90;;;;;;5072530;28;19927;-64
2024/01/15 01:19:50;;;;;;;;;;;13.60;99.90;;;;;;5072364;28;19915;-64
2024/01/15 01:22:16;;;;;;;;;;;13.60;99.90;;;;;;5072438;28;19908;-65
2024/01/15 01:24:42;;;;;;;;;;;13.60;99.90;;;;;;5072677;28;19912;-64
2024/01/15 01:27:08;;;;;;;;;;;13.50;99.90;;;;;;5072293;28;19913;-65
2024/01/15 01:29:35;;;;;;;;;;;13.50;99.90;;;;;;5072393;28;19997;-65
2024/01/15 01:32:01;;;;;;;;;;;13.40;99.90;;;;;;5072218;28;19908;-65
2024/01/15 01:34:27;;;;;;;;;;;13.50;99.90;;;;;;5053917;28;20387;-65
2024/01/15 01:36:53;;;;;;;;;;;13.40;99.90;;;;;;5072272;28;19951;-65
2024/01/15 01:39:19;;;;;;;;;;;13.40;99.90;;;;;;5071847;28;19973;-65
2024/01/15 01:41:45;;;;;;;;;;;13.40;99.90;;;;;;5054043;28;19962;-65
2024/01/15 01:44:11;;;;;;;;;;;13.30;99.90;;;;;;5072049;28;19915;-65
2024/01/15 01:46:40;;;;;;;;;;;13.40;99.90;;;;;;5072121;28;19916;-64
2024/01/15 01:49:09;;;;;;;;;;;13.40;99.90;;;;;;5053692;28;20300;-66
2024/01/15 01:51:36;;;;;;;;;;;13.40;99.90;;;;;;5072032;28;20033;-65
2024/01/15 01:54:01;;;;;;;;;;;13.40;99.90;;;;;;5071819;28;19909;-63
2024/01/15 01:56:27;;;;;;;;;;;13.40;99.90;;;;;;5071994;28;19931;-65
2024/01/15 01:58:53;;;;;;;;;;;13.40;99.90;;;;;;5053764;28;19917;-65
2024/01/15 02:01:19;;;;;;;;;;;13.40;99.90;;;;;;5053740;28;19909;-65
2024/01/15 02:03:45;;;;;;;;;;;13.40;99.90;;;;;;5071717;28;19962;-65
2024/01/15 02:06:11;;;;;;;;;;;13.40;99.90;;;;;;5071747;28;19947;-64
2024/01/15 02:08:38;;;;;;;;;;;13.40;99.90;;;;;;5072121;28;20352;-65
2024/01/15 02:11:04;;;;;;;;;;;13.50;99.90;;;;;;5071696;28;19962;-64
2024/01/15 02:13:29;;;;;;;;;;;13.40;99.90;;;;;;5071897;28;19908;-65
2024/01/15 02:15:55;;;;;;;;;;;13.50;99.90;;;;;;5070404;28;20261;-65
2024/01/15 02:18:21;;;;;;;;;;;13.50;99.90;;;;;;5071513;28;20022;-65
2024/01/15 02:20:47;;;;;;;;;;;13.50;99.90;;;;;;5070190;28;19913;-65
2024/01/15 02:23:14;;;;;;;;;;;13.50;99.90;;;;;;5071197;28;19916;-65
2024/01/15 02:25:41;;;;;;;;;;;13.40;99.90;;;;;;5071362;28;20026;-65
2024/01/15 02:28:09;;;;;;;;;;;13.40;99.90;;;;;;5071438;28;19991;-65
2024/01/15 02:30:38;;;;;;;;;;;13.40;99.90;;;;;;5071464;28;19978;-65
2024/01/15 02:33:04;;;;;;;;;;;13.40;99.90;;;;;;5071515;28;19943;-65
2024/01/15 02:35:30;;;;;;;;;;;13.40;99.90;;;;;;5071192;28;20276;-65
2024/01/15 02:37:56;;;;;;;;;;;13.40;99.90;;;;;;5071547;28;19970;-65
2024/01/15 02:40:22;;;;;;;;;;;13.20;99.90;;;;;;5071597;28;19920;-64
2024/01/15 02:42:47;;;;;;;;;;;13.10;99.90;;;;;;5071553;28;19912;-65
2024/01/15 02:45:13;;;;;;;;;;;13.20;99.90;;;;;;5071576;28;20341;-65
2024/01/15 02:47:39;;;;;;;;;;;13.20;99.90;;;;;;5071451;28;19908;-65
2024/01/15 02:50:05;;;;;;;;;;;13.20;99.90;;;;;;5071262;28;20364;-65
2024/01/15 02:52:31;;;;;;;;;;;13.20;99.90;;;;;;5071722;28;19908;-65
2024/01/15 02:54:56;;;;;;;;;;;13.20;99.90;;;;;;5071439;28;19916;-65
2024/01/15 02:57:22;;;;;;;;;;;13.00;99.90;;;;;;5071591;28;20350;-65
2024/01/15 02:59:48;;;;;;;;;;;13.00;99.90;;;;;;5071172;28;19915;-65
2024/01/15 03:02:14;;;;;;;;;;;13.10;99.90;;;;;;5071578;28;19931;-64
2024/01/15 03:04:43;;;;;;;;;;;13.10;99.90;;;;;;5070872;28;19943;-65
2024/01/15 03:07:09;;;;;;;;;;;13.20;99.90;;;;;;5053219;28;19995;-64
2024/01/15 03:09:35;;;;;;;;;;;13.20;99.90;;;;;;5071378;28;20003;-65
2024/01/15 03:12:01;;;;;;;;;;;13.30;99.90;;;;;;5071227;28;20353;-66
2024/01/15 03:14:27;;;;;;;;;;;13.30;99.90;;;;;;5071014;28;19912;-65
2024/01/15 03:16:53;;;;;;;;;;;13.20;99.90;;;;;;5071194;28;20113;-65
2024/01/15 03:19:19;;;;;;;;;;;13.10;99.90;;;;;;5070757;28;20007;-63
2024/01/15 03:21:44;;;;;;;;;;;13.10;99.90;;;;;;5070971;28;19996;-65
2024/01/15 03:24:10;;;;;;;;;;;13.10;99.90;;;;;;5071201;28;20324;-65
2024/01/15 03:26:36;;;;;;;;;;;13.00;99.90;;;;;;5052646;28;19970;-64
2024/01/15 03:29:02;;;;;;;;;;;13.10;99.90;;;;;;5070920;28;19908;-65
2024/01/15 03:31:28;;;;;;;;;;;13.10;99.90;;;;;;5071060;28;19976;-65
2024/01/15 03:33:53;;;;;;;;;;;13.00;99.90;;;;;;5071795;28;19908;-65
2024/01/15 03:36:19;;;;;;;;;;;13.00;99.90;;;;;;5074896;28;19931;-65
2024/01/15 03:38:45;;;;;;;;;;;13.00;99.90;;;;;;5074263;28;19960;-65
2024/01/15 03:41:11;;;;;;;;;;;13.00;99.90;;;;;;5074781;28;20345;-65
2024/01/15 03:43:36;;;;;;;;;;;13.10;99.90;;;;;;5074202;28;19981;-65
2024/01/15 03:46:02;;;;;;;;;;;13.10;99.90;;;;;;5074566;28;20357;-65
2024/01/15 03:48:28;;;;;;;;;;;13.10;99.90;;;;;;5074012;28;20007;-65
2024/01/15 03:50:54;;;;;;;;;;;13.10;99.90;;;;;;5074084;28;19908;-65
2024/01/15 03:53:20;;;;;;;;;;;13.20;99.90;;;;;;5074176;28;19909;-64
2024/01/15 03:55:47;;;;;;;;;;;13.20;99.90;;;;;;5073937;28;19923;-64
2024/01/15 03:58:14;;;;;;;;;;;13.10;99.90;;;;;;5074146;28;20011;-64
2024/01/15 04:00:40;;;;;;;;;;;13.10;99.90;;;;;;5074369;28;19915;-64
2024/01/15 04:03:06;;;;;;;;;;;13.10;99.90;;;;;;5074375;28;20011;-64
2024/01/15 04:05:32;;;;;;;;;;;13.10;99.90;;;;;;5073956;28;20011;-65
2024/01/15 04:07:58;;;;;;;;;;;13.00;99.90;;;;;;5074649;28;19908;-65
2024/01/15 04:10:24;;;;;;;;;;;13.00;99.90;;;;;;5074490;28;19923;-65
2024/01/15 04:12:50;;;;;;;;;;;13.00;99.90;;;;;;5074319;28;20360;-64
2024/01/15 04:15:15;;;;;;;;;;;13.00;99.90;;;;;;5073974;28;19909;-64
2024/01/15 04:17:41;;;;;;;;;;;12.80;99.90;;;;;;5074151;28;19908;-65
2024/01/15 04:20:07;;;;;;;;;;;12.70;99.90;;;;;;5073895;28;19908;-65
2024/01/15 04:22:34;;;;;;;;;;;12.70;99.90;;;;;;5074245;28;19912;-65
2024/01/15 04:25:00;;;;;;;;;;;12.80;99.90;;;;;;5074102;28;20019;-64
2024/01/15 04:27:25;;;;;;;;;;;12.70;99.90;;;;;;5074612;28;19948;-65
2024/01/15 04:29:51;;;;;;;;;;;12.70;99.90;;;;;;5074224;28;19919;-65
2024/01/15 04:32:18;;;;;;;;;;;12.70;99.90;;;;;;5074023;28;19908;-65
2024/01/15 04:34:44;;;;;;;;;;;12.70;99.90;;;;;;5074093;28;19961;-65
2024/01/15 04:37:09;;;;;;;;;;;12.60;99.90;;;;;;5055935;28;19999;-65
2024/01/15 04:39:35;;;;;;;;;;;12.50;99.90;;;;;;5073808;28;19928;-65
2024/01/15 04:42:01;;;;;;;;;;;12.40;99.90;;;;;;5074010;28;19977;-65
2024/01/15 04:44:27;;;;;;;;;;;12.40;99.90;;;;;;5074119;28;20011;-64
2024/01/15 04:46:53;;;;;;;;;;;12.30;99.90;;;;;;5073087;28;19922;-65
2024/01/15 04:49:18;;;;;;;;;;;12.40;99.90;;;;;;5073785;28;20010;-62
2024/01/15 04:51:45;;;;;;;;;;;12.30;99.90;;;;;;5073667;28;19963;-65
2024/01/15 04:54:11;;;;;;;;;;;12.40;99.90;;;;;;5074590;28;19912;-65
2024/01/15 04:56:37;;;;;;;;;;;12.50;99.90;;;;;;5074095;28;19912;-65
2024/01/15 04:59:03;;;;;;;;;;;12.50;99.90;;;;;;5074452;28;20004;-65
2024/01/15 05:01:32;;;;;;;;;;;12.60;99.90;;;;;;5073982;28;19954;-65
2024/01/15 05:03:58;;;;;;;;;;;12.70;99.90;;;;;;5073635;28;19909;-65
2024/01/15 05:06:24;;;;;;;;;;;12.80;99.90;;;;;;5055783;28;19970;-65
2024/01/15 05:08:49;;;;;;;;;;;12.80;99.90;;;;;;5055826;28;19916;-65
2024/01/15 05:11:15;;;;;;;;;;;12.90;99.90;;;;;;5073990;28;19952;-65
2024/01/15 05:13:41;;;;;;;;;;;13.00;99.90;;;;;;5073790;28;19908;-65
2024/01/15 05:16:08;;;;;;;;;;;13.00;99.90;;;;;;5073832;28;20019;-63
2024/01/15 05:18:33;;;;;;;;;;;13.00;99.90;;;;;;5074480;28;19917;-66
2024/01/15 05:20:59;;;;;;;;;;;13.10;99.90;;;;;;5074605;28;19908;-65
2024/01/15 05:23:25;;;;;;;;;;;13.10;99.90;;;;;;5074997;28;20245;-65
2024/01/15 05:25:51;;;;;;;;;;;13.20;99.90;;;;;;5074646;28;19924;-65
2024/01/15 05:28:17;;;;;;;;;;;13.20;99.90;;;;;;5074432;28;20010;-64
2024/01/15 05:30:43;;;;;;;;;;;13.20;99.90;;;;;;5056446;28;19908;-65
2024/01/15 05:33:09;;;;;;;;;;;13.20;99.90;;;;;;5074287;28;20331;-65
2024/01/15 05:35:36;;;;;;;;;;;13.20;99.90;;;;;;5074001;28;19913;-64
2024/01/15 05:38:02;;;;;;;;;;;13.30;99.90;;;;;;5074678;28;19919;-63
2024/01/15 05:40:28;;;;;;;;;;;13.30;99.90;;;;;;5074445;28;19924;-65
2024/01/15 05:42:54;;;;;;;;;;;13.40;99.90;;;;;;5073906;28;19912;-65
2024/01/15 05:45:20;;;;;;;;;;;13.40;99.90;;;;;;5074462;28;19959;-65
2024/01/15 05:47:45;;;;;;;;;;;13.40;99.90;;;;;;5074053;28;20333;-65
2024/01/15 05:50:12;;;;;;;;;;;13.40;99.90;;;;;;5073383;28;20010;-65
2024/01/15 05:52:38;;;;;;;;;;;13.40;99.90;;;;;;5073222;28;19944;-65
2024/01/15 05:55:04;;;;;;;;;;;13.50;99.90;;;;;;5073286;28;19908;-65
2024/01/15 05:57:30;;;;;;;;;;;13.50;99.90;;;;;;5073699;28;19908;-65
2024/01/15 05:59:56;;;;;;;;;;;13.50;99.90;;;;;;5073585;28;19974;-63
2024/01/15 06:02:22;;;;;;;;;;;13.50;99.90;;;;;;5055709;28;19952;-65
2024/01/15 06:04:48;;;;;;;;;;;13.50;99.90;;;;;;5073067;28;20101;-65
2024/01/15 06:07:14;;;;;;;;;;;13.60;99.90;;;;;;5055411;28;20391;-65
2024/01/15 06:09:40;;;;;;;;;;;13.60;99.90;;;;;;5073422;28;19909;-65
2024/01/15 06:12:08;;;;;;;;;;;13.60;99.90;;;;;;5073286;28;19999;-65
2024/01/15 06:14:34;;;;;;;;;;;13.60;99.90;;;;;;5073627;28;19916;-65
2024/01/15 06:17:00;;;;;;;;;;;13.60;99.90;;;;;;5073257;28;20240;-65
2024/01/15 06:19:25;;;;;;;;;;;13.70;99.90;;;;;;5073306;28;19908;-66
2024/01/15 06:21:51;;;;;;;;;;;13.70;99.90;;;;;;5073484;28;19931;-66
2024/01/15 06:24:20;;;;;;;;;;;13.70;99.90;;;;;;5055310;28;19909;-65
2024/01/15 06:26:48;;;;;;;;;;;13.70;99.90;;;;;;5072837;28;19920;-64
2024/01/15 06:29:14;;;;;;;;;;;13.70;99.90;;;;;;5071226;28;20007;-63
2024/01/15 06:31:40;;;;;;;;;;;13.70;99.90;;;;;;5071459;28;19940;-61
2024/01/15 06:34:06;;;;;;;;;;;13.70;99.90;;;;;;5071912;28;19908;-62
2024/01/15 06:36:32;;;;;;;;;;;13.70;99.90;;;;;;5071167;28;19935;-66
2024/01/15 06:38:58;;;;;;;;;;;13.80;99.90;;;;;;5072146;28;19964;-65
2024/01/15 06:41:25;;;;;;;;;;;13.80;99.90;;;;;;5070844;28;19916;-66
2024/01/15 06:43:51;;;;;;;;;;;13.80;99.90;;;;;;5072060;28;19912;-65
2024/01/15 06:46:21;;;;;;;;;;;13.90;99.90;;;;;;5071830;28;19943;-65
2024/01/15 06:48:46;;;;;;;;;;;14.00;99.90;;;;;;5071947;28;19952;-65
2024/01/15 06:51:12;;;;;;;;;;;14.00;99.90;;;;;;5072080;28;20012;-65
2024/01/15 06:53:38;;;;;;;;;;;14.10;99.90;;;;;;5053463;28;20240;-65
2024/01/15 06:56:04;;;;;;;;;;;14.20;99.90;;;;;;5071493;28;19938;-64
2024/01/15 06:58:33;;;;;;;;;;;14.30;99.90;;;;;;5053340;28;20323;-65
2024/01/15 07:00:59;;;;;;;;;;;14.40;99.90;;;;;;5071801;28;19916;-65
2024/01/15 07:03:25;;;;;;;;;;;14.50;99.90;;;;;;5076851;28;19924;-65
2024/01/15 07:05:51;;;;;;;;;;;14.50;99.90;;;;;;5071143;28;19922;-64
2024/01/15 07:08:17;;;;;;;;;;;14.50;99.90;;;;;;5071667;28;20287;-64
2024/01/15 07:10:43;;;;;;;;;;;14.50;99.90;;;;;;5075115;28;19909;-65
2024/01/15 07:13:09;;;;;;;;;;;14.60;99.90;;;;;;5075046;28;19915;-65
2024/01/15 07:15:34;;;;;;;;;;;14.60;99.90;;;;;;5075565;28;20050;-66
2024/01/15 07:18:00;;;;;;;;;;;14.70;99.90;;;;;;5075408;28;19956;-62
2024/01/15 07:20:26;;;;;;;;;;;14.80;99.90;;;;;;5074984;28;19928;-66
2024/01/15 07:22:52;;;;;;;;;;;14.90;99.90;;;;;;5074837;28;20292;-66
2024/01/15 07:25:18;;;;;;;;;;;15.10;99.90;;;;;;5074644;28;20372;-69
2024/01/15 07:27:44;;;;;;;;;;;15.30;99.90;;;;;;5075558;28;20333;-65
2024/01/15 07:30:12;;;;;;;;;;;15.30;99.90;;;;;;5075465;28;19908;-66
2024/01/15 07:32:37;;;;;;;;;;;15.40;99.90;;;;;;5075730;28;19957;-67
2024/01/15 07:35:04;;;;;;;;;;;15.50;99.90;;;;;;5074258;28;20015;-67
2024/01/15 07:37:29;;;;;;;;;;;15.50;99.90;;;;;;5074992;28;19966;-66
2024/01/15 07:39:55;;;;;;;;;;;15.50;99.90;;;;;;5075064;28;19927;-64
2024/01/15 07:42:21;;;;;;;;;;;15.50;99.90;;;;;;5075067;28;20348;-67
2024/01/15 07:44:47;;;;;;;;;;;15.50;99.90;;;;;;5075222;28;19918;-65
2024/01/15 07:47:13;;;;;;;;;;;15.50;99.90;;;;;;5074813;28;19919;-66
2024/01/15 07:49:39;;;;;;;;;;;15.50;99.90;;;;;;5074633;28;19924;-66
2024/01/15 07:52:05;;;;;;;;;;;15.60;99.90;;;;;;5075253;28;19908;-64
2024/01/15 07:54:31;;;;;;;;;;;15.70;99.90;;;;;;5056424;28;19916;-66
2024/01/15 07:56:58;;;;;;;;;;;15.80;99.90;;;;;;5074386;28;19934;-65
2024/01/15 07:59:24;;;;;;;;;;;16.00;99.90;;;;;;5056148;28;19920;-67
2024/01/15 08:01:50;;;;;;;;;;;16.20;99.90;;;;;;5074472;28;19908;-66
2024/01/15 08:04:16;;;;;;;;;;;16.30;99.90;;;;;;5074221;28;20361;-65
2024/01/15 08:06:42;;;;;;;;;;;16.60;99.90;;;;;;5056169;28;19916;-65
2024/01/15 08:09:08;;;;;;;;;;;16.90;99.90;;;;;;5056232;28;19915;-65
2024/01/15 08:11:34;;;;;;;;;;;17.00;99.90;;;;;;5074851;28;19908;-66
2024/01/15 08:14:01;;;;;;;;;;;17.10;99.90;;;;;;5073471;28;20284;-68
2024/01/15 08:16:27;;;;;;;;;;;17.10;99.90;;;;;;5074247;28;20026;-66
2024/01/15 08:18:53;;;;;;;;;;;17.10;99.90;;;;;;5072846;28;19984;-65
2024/01/15 08:21:19;;;;;;;;;;;17.00;99.90;;;;;;5072037;28;19924;-65
2024/01/15 08:23:45;;;;;;;;;;;16.80;99.90;;;;;;5074126;28;19912;-65
2024/01/15 08:26:11;;;;;;;;;;;16.80;99.90;;;;;;5073891;28;19916;-66
2024/01/15 08:28:37;;;;;;;;;;;16.70;99.90;;;;;;5073738;28;19913;-66
2024/01/15 08:31:03;;;;;;;;;;;16.70;99.90;;;;;;5073961;28;20004;-66
2024/01/15 08:33:29;;;;;;;;;;;16.80;99.90;;;;;;5074578;28;19987;-64
2024/01/15 08:35:55;;;;;;;;;;;16.60;99.90;;;;;;5073996;28;19944;-66
2024/01/15 08:38:22;;;;;;;;;;;16.60;99.90;;;;;;5073980;28;19956;-65
2024/01/15 08:40:48;;;;;;;;;;;16.50;99.90;;;;;;5074754;28;19919;-65
2024/01/15 08:43:14;;;;;;;;;;;16.50;99.90;;;;;;5073948;28;19909;-65
2024/01/15 08:45:39;;;;;;;;;;;16.50;99.90;;;;;;5073982;28;20249;-66
2024/01/15 08:48:05;;;;;;;;;;;16.60;99.90;;;;;;5073733;28;19966;-67
2024/01/15 08:50:32;;;;;;;;;;;16.60;99.90;;;;;;5071983;28;19956;-65
2024/01/15 08:52:58;;;;;;;;;;;16.60;99.90;;;;;;5073615;28;19915;-65
2024/01/15 08:55:24;;;;;;;;;;;16.70;99.90;;;;;;5073656;28;20107;-66
2024/01/15 08:57:51;;;;;;;;;;;16.80;99.90;;;;;;5073346;28;19959;-66
2024/01/15 09:00:17;;;;;;;;;;;17.00;99.90;;;;;;5073267;28;19966;-65
2024/01/15 09:02:44;;;;;;;;;;;17.20;99.90;;;;;;5071813;28;20234;-66
2024/01/15 09:05:09;;;;;;;;;;;17.40;99.90;;;;;;5072954;28;19927;-66
2024/01/15 09:07:35;;;;;;;;;;;17.60;99.90;;;;;;5072651;28;19909;-63
2024/01/15 09:10:02;;;;;;;;;;;17.70;99.90;;;;;;5072385;28;20028;-64
2024/01/15 09:12:29;;;;;;;;;;;17.60;99.90;;;;;;5072086;28;19959;-65
2024/01/15 09:14:55;;;;;;;;;;;17.50;99.90;;;;;;5054103;28;19908;-65
2024/01/15 09:17:23;;;;;;;;;;;17.70;99.90;;;;;;5072403;28;19916;-65
2024/01/15 09:19:49;;;;;;;;;;;17.90;99.90;;;;;;5072202;28;20482;-64
2024/01/15 09:22:18;;;;;;;;;;;18.10;99.90;;;;;;5071671;28;20339;-65
2024/01/15 09:24:44;;;;;;;;;;;18.20;99.90;;;;;;5070303;28;19909;-65
2024/01/15 09:27:11;;;;;;;;;;;18.10;99.90;;;;;;5071109;28;19924;-65
2024/01/15 09:29:39;;;;;;;;;;;18.00;99.90;;;;;;5071547;28;19912;-63
2024/01/15 09:32:06;;;;;;;;;;;18.00;99.90;;;;;;5070516;28;20291;-64
2024/01/15 09:34:32;;;;;;;;;;;18.10;99.90;;;;;;5070449;28;19995;-64
2024/01/15 09:36:59;;;;;;;;;;;18.30;99.90;;;;;;5052606;28;20305;-65
2024/01/15 09:39:26;;;;;;;;;;;18.40;99.90;;;;;;5070498;28;19932;-64
2024/01/15 09:41:52;;;;;;;;;;;18.50;99.90;;;;;;5052754;28;19917;-65
2024/01/15 09:44:19;;;;;;;;;;;18.70;99.90;;;;;;5071543;28;19920;-64
2024/01/15 09:46:46;;;;;;;;;;;18.60;99.90;;;;;;5071820;28;19923;-66
2024/01/15 09:49:12;;;;;;;;;;;18.60;99.90;;;;;;5071669;28;19932;-64
2024/01/15 09:51:38;;;;;;;;;;;18.50;99.90;;;;;;5072257;28;19919;-65
2024/01/15 09:54:05;;;;;;;;;;;18.40;99.90;;;;;;5072495;28;19935;-65
2024/01/15 09:56:31;;;;;;;;;;;18.40;99.90;;;;;;5072569;28;19909;-65
2024/01/15 09:58:57;;;;;;;;;;;18.50;99.90;;;;;;5072575;28;20328;-64
2024/01/15 10:01:23;;;;;;;;;;;18.40;99.90;;;;;;5072190;28;20498;-64
2024/01/15 10:03:51;;;;;;;;;;;18.60;99.90;;;;;;5072083;28;20007;-65
2024/01/15 10:06:17;;;;;;;;;;;18.60;99.90;;;;;;5071968;28;19971;-64
2024/01/15 10:08:47;;;;;;;;;;;18.40;99.90;;;;;;5072132;28;19909;-64
2024/01/15 10:11:13;;;;;;;;;;;18.20;99.90;;;;;;5053990;28;19909;-65
2024/01/15 10:13:39;;;;;;;;;;;18.20;99.90;;;;;;5072330;28;19908;-62
2024/01/15 10:16:05;;;;;;;;;;;18.20;99.90;;;;;;5054300;28;20363;-66
2024/01/15 10:18:31;;;;;;;;;;;18.30;99.90;;;;;;5072746;28;19915;-65
2024/01/15 10:20:57;;;;;;;;;;;18.30;99.90;;;;;;5054058;28;19934;-65
2024/01/15 10:23:23;;;;;;;;;;;18.40;99.90;;;;;;5072275;28;20013;-64
2024/01/15 10:25:49;;;;;;;;;;;18.30;99.90;;;;;;5072143;28;19939;-65
2024/01/15 10:28:15;;;;;;;;;;;18.20;99.90;;;;;;5072248;28;19909;-65
2024/01/15 10:30:40;;;;;;;;;;;18.30;99.90;;;;;;5054137;28;19908;-66
2024/01/15 10:33:06;;;;;;;;;;;18.50;99.90;;;;;;5072767;28;19909;-65
2024/01/15 10:35:33;;;;;;;;;;;18.60;99.90;;;;;;5071719;28;20007;-66
2024/01/15 10:38:00;;;;;;;;;;;18.90;99.90;;;;;;5072274;28;19913;-65
2024/01/15 10:40:26;;;;;;;;;;;19.00;99.90;;;;;;5070980;28;19917;-64
2024/01/15 10:42:52;;;;;;;;;;;18.90;99.90;;;;;;5071559;28;19909;-64
2024/01/15 10:45:18;;;;;;;;;;;18.80;99.90;;;;;;5071477;28;20018;-65
2024/01/15 10:47:44;;;;;;;;;;;18.90;99.90;;;;;;5053921;28;20478;-65
2024/01/15 10:50:11;;;;;;;;;;;18.80;99.90;;;;;;5071745;28;20265;-65
2024/01/15 10:52:40;;;;;;;;;;;18.90;99.90;;;;;;5072135;28;19923;-65
2024/01/15 10:55:08;;;;;;;;;;;18.90;99.90;;;;;;5071707;28;19909;-64
2024/01/15 10:57:34;;;;;;;;;;;18.90;99.90;;;;;;5071230;28;20364;-65
2024/01/15 11:00:04;;;;;;;;;;;18.90;99.90;;;;;;5064114;28;19917;-65
2024/01/15 11:02:30;;;;;;;;;;;19.10;99.90;;;;;;5070713;28;19913;-66
2024/01/15 11:04:56;;;;;;;;;;;18.90;99.90;;;;;;5069624;28;19958;-63
2024/01/15 11:07:23;;;;;;;;;;;18.80;99.90;;;;;;5069837;28;19912;-66
2024/01/15 11:09:50;;;;;;;;;;;18.80;99.90;;;;;;5071634;28;19962;-65
2024/01/15 11:12:17;;;;;;;;;;;18.80;99.90;;;;;;5071913;28;19954;-65
2024/01/15 11:14:47;;;;;;;;;;;18.70;99.90;;;;;;5071664;28;19913;-65
2024/01/15 11:17:13;;;;;;;;;;;18.70;99.90;;;;;;5071203;28;19912;-65
2024/01/15 11:19:42;;;;;;;;;;;18.50;99.90;;;;;;5069309;28;19913;-62
2024/01/15 11:22:08;;;;;;;;;;;18.40;99.90;;;;;;5069900;28;19974;-63
2024/01/15 11:24:40;;;;;;;;;;;18.50;99.90;;;;;;5070397;28;19913;-64
2024/01/15 11:27:07;;;;;;;;;;;18.60;99.90;;;;;;5067559;28;19928;-62
2024/01/15 11:29:34;;;;;;;;;;;18.80;99.90;;;;;;5071794;28;19916;-64
2024/01/15 11:32:10;;;;;;;;;;;18.90;99.90;;;;;;5071851;28;20110;-65
2024/01/15 11:34:57;;;;;;;;;;;19.30;99.90;;;;;;5071363;28;19951;-65
2024/01/15 11:37:24;;;;;;;;;;;19.30;99.90;;;;;;5069862;28;19984;-65
2024/01/15 11:39:53;;;;;;;;;;;19.50;99.90;;;;;;5070845;28;20276;-65
2024/01/15 11:42:20;;;;;;;;;;;19.40;99.90;;;;;;5070341;28;20341;-66
2024/01/15 11:44:46;;;;;;;;;;;19.50;99.90;;;;;;5072230;28;19909;-65
2024/01/15 11:47:13;;;;;;;;;;;19.60;99.90;;;;;;5071705;28;19920;-65
2024/01/15 11:49:53;;;;;;;;;;;19.70;99.90;;;;;;5053457;28;20294;-65
2024/01/15 11:52:20;;;;;;;;;;;19.60;99.90;;;;;;5071907;28;19909;-64
2024/01/15 11:54:52;;;;;;;;;;;19.50;99.90;;;;;;5072650;28;19908;-65
2024/01/15 11:57:21;;;;;;;;;;;19.30;99.90;;;;;;5075726;28;19912;-64
2024/01/15 11:59:48;;;;;;;;;;;19.00;99.90;;;;;;5075151;28;19912;-64
2024/01/15 12:02:14;;;;;;;;;;;18.70;99.90;;;;;;5074889;28;20260;-65
2024/01/15 12:04:40;;;;;;;;;;;18.60;99.90;;;;;;5074377;28;19916;-64
2024/01/15 12:07:07;;;;;;;;;;;18.50;99.90;;;;;;5075309;28;19916;-64
2024/01/15 12:09:33;;;;;;;;;;;18.60;99.90;;;;;;5075053;28;20381;-64
2024/01/15 12:12:05;;;;;;;;;;;18.70;99.90;;;;;;5074568;28;19916;-63
2024/01/15 12:14:34;;;;;;;;;;;18.70;99.90;;;;;;5074472;28;20007;-64
2024/01/15 12:17:00;;;;;;;;;;;18.60;99.90;;;;;;5074441;28;20003;-64
2024/01/15 12:19:26;;;;;;;;;;;18.70;99.90;;;;;;5074539;28;19909;-64
2024/01/15 12:21:52;;;;;;;;;;;18.60;99.90;;;;;;5074682;28;20382;-64
2024/01/15 12:24:17;;;;;;;;;;;18.50;99.90;;;;;;5074487;28;19912;-64
2024/01/15 12:26:44;;;;;;;;;;;18.50;99.90;;;;;;5074794;28;19963;-64
2024/01/15 12:29:11;;;;;;;;;;;18.40;99.90;;;;;;5074392;28;19908;-65
2024/01/15 12:31:37;;;;;;;;;;;18.30;99.90;;;;;;5074740;28;19909;-62
2024/01/15 12:34:03;;;;;;;;;;;18.30;99.90;;;;;;5074137;28;19961;-65
2024/01/15 12:36:32;;;;;;;;;;;18.20;99.90;;;;;;5073886;28;19909;-64
2024/01/15 12:39:02;;;;;;;;;;;18.20;99.90;;;;;;5074109;28;19924;-64
2024/01/15 12:41:28;;;;;;;;;;;18.00;99.90;;;;;;5074202;28;19916;-65
2024/01/15 12:43:54;;;;;;;;;;;17.90;99.90;;;;;;5074386;28;19962;-65
2024/01/15 12:46:19;;;;;;;;;;;17.90;99.90;;;;;;5074311;28;19916;-63
2024/01/15 12:48:45;;;;;;;;;;;17.90;99.90;;;;;;5073622;28;19908;-65
2024/01/15 12:51:11;;;;;;;;;;;17.90;99.90;;;;;;5073538;28;19936;-64
2024/01/15 12:53:38;;;;;;;;;;;17.80;99.90;;;;;;5074225;28;20261;-64
2024/01/15 12:56:04;;;;;;;;;;;17.70;99.90;;;;;;5073911;28;19912;-65
2024/01/15 12:58:29;;;;;;;;;;;17.70;99.90;;;;;;5055837;28;20010;-65
2024/01/15 13:00:55;;;;;;;;;;;17.70;99.90;;;;;;5073738;28;20067;-65
2024/01/15 13:03:22;;;;;;;;;;;17.80;99.90;;;;;;5073848;28;20372;-65
2024/01/15 13:05:48;;;;;;;;;;;17.60;99.90;;;;;;5073567;28;19917;-65
2024/01/15 13:08:14;;;;;;;;;;;17.50;99.90;;;;;;5073324;28;19920;-64
2024/01/15 13:10:42;;;;;;;;;;;17.50;99.90;;;;;;5074373;28;19909;-65
2024/01/15 13:13:07;;;;;;;;;;;17.40;99.90;;;;;;5073986;28;19913;-65
2024/01/15 13:15:33;;;;;;;;;;;17.40;99.90;;;;;;5074555;28;19931;-65
2024/01/15 13:18:00;;;;;;;;;;;17.50;99.90;;;;;;5074505;28;19908;-65
2024/01/15 13:20:26;;;;;;;;;;;17.50;99.90;;;;;;5074555;28;20387;-63
2024/01/15 13:22:52;;;;;;;;;;;17.70;99.90;;;;;;5074361;28;19999;-64
2024/01/15 13:25:17;;;;;;;;;;;17.80;99.90;;;;;;5074255;28;19917;-64
2024/01/15 13:27:43;;;;;;;;;;;17.80;99.90;;;;;;5074291;28;19908;-64
2024/01/15 13:30:10;;;;;;;;;;;18.00;99.90;;;;;;5074977;28;20002;-63
2024/01/15 13:32:36;;;;;;;;;;;18.10;99.90;;;;;;5074371;28;19915;-66
2024/01/15 13:35:05;;;;;;;;;;;18.20;99.90;;;;;;5056109;28;19909;-64
2024/01/15 13:37:31;;;;;;;;;;;18.30;99.90;;;;;;5073857;28;19912;-65
2024/01/15 13:39:56;;;;;;;;;;;18.30;99.90;;;;;;5074525;28;19920;-65
2024/01/15 13:42:22;;;;;;;;;;;18.20;99.90;;;;;;5074568;28;19909;-66
2024/01/15 13:44:48;;;;;;;;;;;18.20;99.90;;;;;;5074079;28;20439;-66
2024/01/15 13:47:14;;;;;;;;;;;18.10;99.90;;;;;;5074330;28;20320;-66
2024/01/15 13:49:39;;;;;;;;;;;18.10;99.90;;;;;;5073607;28;19912;-65
2024/01/15 13:52:05;;;;;;;;;;;18.00;99.90;;;;;;5074400;28;20348;-66
2024/01/15 13:54:31;;;;;;;;;;;17.90;99.90;;;;;;5055739;28;20309;-65
2024/01/15 13:56:58;;;;;;;;;;;17.90;99.90;;;;;;5055602;28;19970;-64
2024/01/15 13:59:24;;;;;;;;;;;17.80;99.90;;;;;;5073567;28;20380;-66
2024/01/15 14:01:50;;;;;;;;;;;17.80;99.90;;;;;;5073410;28;20280;-65
2024/01/15 14:04:16;;;;;;;;;;;17.80;99.90;;;;;;5073691;28;19908;-66
2024/01/15 14:06:42;;;;;;;;;;;17.80;99.90;;;;;;5073238;28;20365;-66
2024/01/15 14:09:10;;;;;;;;;;;17.60;99.90;;;;;;5074171;28;19913;-66
2024/01/15 14:11:38;;;;;;;;;;;17.50;99.90;;;;;;5073451;28;20009;-66